createdAt,value
2023-04-29T00:00:21.954Z,101618.03
2023-04-29T00:02:48.622Z,101627.03
2023-04-29T00:05:15.665Z,101631.38
2023-04-29T00:07:43.267Z,101624.47
2023-04-29T00:10:10.282Z,101634.91
2023-04-29T00:12:36.881Z,101634.78
2023-04-29T00:15:05.107Z,101637.53
2023-04-29T00:17:33.150Z,101626.44
2023-04-29T00:19:59.754Z,101640.97
2023-04-29T00:22:26.325Z,101633.34
2023-04-29T00:24:53.597Z,101640.97
2023-04-29T00:27:20.280Z,101635.81
2023-04-29T00:29:46.890Z,101647.09
2023-04-29T00:32:13.457Z,101649.06
2023-04-29T00:34:40.010Z,101655.31
2023-04-29T00:37:06.597Z,101652.66
2023-04-29T00:39:33.338Z,101651.81
2023-04-29T00:42:00.613Z,101654.47
2023-04-29T00:44:27.172Z,101656.16
2023-04-29T00:46:54.289Z,101658.81
2023-04-29T00:49:21.024Z,101651.91
2023-04-29T00:51:48.218Z,101667.78
2023-04-29T00:54:15.370Z,101663.53
2023-04-29T00:56:45.554Z,101665.28
2023-04-29T00:59:12.781Z,101667.88
2023-04-29T01:01:39.550Z,101673.09
2023-04-29T01:04:06.855Z,101677.44
2023-04-29T01:06:53.218Z,101681.94
2023-04-29T01:09:31.966Z,101680.06
2023-04-29T01:12:22.608Z,101684.53
2023-04-29T01:15:02.479Z,101681.28
2023-04-29T01:17:33.246Z,101685.81
2023-04-29T01:20:01.579Z,101693.06
2023-04-29T01:22:28.160Z,101693.91
2023-04-29T01:24:55.028Z,101697.41
2023-04-29T01:27:39.794Z,101700.94
2023-04-29T01:30:12.600Z,101704.44
2023-04-29T01:32:52.503Z,101699.22
2023-04-29T01:35:48.080Z,101699.28
2023-04-29T01:38:39.425Z,101707.16
2023-04-29T01:41:08.985Z,101703.72
2023-04-29T01:43:37.912Z,101715.94
2023-04-29T01:46:09.266Z,101710.66
2023-04-29T01:48:37.499Z,101718.69
2023-04-29T01:51:05.743Z,101710.81
2023-04-29T01:53:32.895Z,101697.75
2023-04-29T01:55:59.472Z,101717.66
2023-04-29T01:58:26.061Z,101716.72
2023-04-29T02:00:52.783Z,101715.78
2023-04-29T02:03:19.993Z,101715.59
2023-04-29T02:05:46.543Z,101724.31
2023-04-29T02:08:13.132Z,101725.28
2023-04-29T02:10:39.604Z,101723.56
2023-04-29T02:13:06.134Z,101727.16
2023-04-29T02:15:32.635Z,101728.97
2023-04-29T02:17:59.233Z,101734.06
2023-04-29T02:20:25.907Z,101736.56
2023-04-29T02:22:52.418Z,101732.44
2023-04-29T02:25:19.071Z,101730.41
2023-04-29T02:27:45.633Z,101741.94
2023-04-29T02:30:13.571Z,101745.50
2023-04-29T02:32:40.123Z,101747.91
2023-04-29T02:35:07.730Z,101749.72
2023-04-29T02:37:35.110Z,101755.78
2023-04-29T02:40:03.940Z,101752.53
2023-04-29T02:42:30.627Z,101758.50
2023-04-29T02:44:57.971Z,101759.53
2023-04-29T02:47:24.875Z,101760.41
2023-04-29T02:49:52.111Z,101766.38
2023-04-29T02:52:19.143Z,101776.91
2023-04-29T02:54:45.979Z,101771.84
2023-04-29T02:57:12.604Z,101777.81
2023-04-29T02:59:39.292Z,101777.81
2023-04-29T03:02:05.775Z,101786.63
2023-04-29T03:04:32.331Z,101788.41
2023-04-29T03:06:58.860Z,101788.41
2023-04-29T03:09:25.446Z,101792.00
2023-04-29T03:11:51.960Z,101787.75
2023-04-29T03:14:18.539Z,101787.81
2023-04-29T03:16:45.114Z,101793.88
2023-04-29T03:19:12.199Z,101800.97
2023-04-29T03:21:38.795Z,101797.72
2023-04-29T03:24:05.866Z,101794.91
2023-04-29T03:26:32.444Z,101809.06
2023-04-29T03:28:59.143Z,101806.34
2023-04-29T03:31:27.245Z,101814.22
2023-04-29T03:33:53.815Z,101808.31
2023-04-29T03:36:20.458Z,101806.53
2023-04-29T03:38:47.044Z,101806.53
2023-04-29T03:41:13.766Z,101807.38
2023-04-29T03:43:41.144Z,101811.91
2023-04-29T03:46:07.776Z,101815.59
2023-04-29T03:48:34.518Z,101810.44
2023-04-29T03:51:01.164Z,101823.41
2023-04-29T03:53:27.805Z,101827.88
2023-04-29T03:55:54.371Z,101825.16
2023-04-29T03:58:20.981Z,101824.38
2023-04-29T04:00:47.600Z,101823.53
2023-04-29T04:03:14.239Z,101831.53
2023-04-29T04:05:41.024Z,101830.59
2023-04-29T04:08:07.560Z,101833.34
2023-04-29T04:10:34.146Z,101838.38
2023-04-29T04:13:00.742Z,101831.28
2023-04-29T04:15:27.358Z,101846.09
2023-04-29T04:17:53.921Z,101844.28
2023-04-29T04:20:20.430Z,101842.59
2023-04-29T04:22:46.982Z,101848.91
2023-04-29T04:25:13.561Z,101855.13
2023-04-29T04:27:40.066Z,101850.69
2023-04-29T04:30:07.385Z,101843.06
2023-04-29T04:32:33.932Z,101848.28
2023-04-29T04:35:00.518Z,101847.44
2023-04-29T04:37:27.113Z,101857.78
2023-04-29T04:39:53.912Z,101852.66
2023-04-29T04:42:22.774Z,101861.53
2023-04-29T04:44:49.358Z,101871.97
2023-04-29T04:47:16.071Z,101867.78
2023-04-29T04:49:42.574Z,101873.91
2023-04-29T04:52:09.053Z,101890.41
2023-04-29T04:54:35.608Z,101880.00
2023-04-29T04:57:06.229Z,101884.13
2023-04-29T04:59:33.852Z,101891.19
2023-04-29T05:02:00.429Z,101905.06
2023-04-29T05:04:27.540Z,101908.47
2023-04-29T05:06:54.348Z,101905.66
2023-04-29T05:09:20.865Z,101902.16
2023-04-29T05:11:47.434Z,101907.22
2023-04-29T05:14:14.045Z,101913.28
2023-04-29T05:16:40.831Z,101912.38
2023-04-29T05:19:10.557Z,101920.16
2023-04-29T05:21:37.137Z,101923.44
2023-04-29T05:24:03.969Z,101923.25
2023-04-29T05:26:30.645Z,101926.59
2023-04-29T05:28:57.155Z,101922.16
2023-04-29T05:31:23.845Z,101919.94
2023-04-29T05:33:50.405Z,101932.09
2023-04-29T05:36:16.950Z,101925.06
2023-04-29T05:38:45.295Z,101934.44
2023-04-29T05:41:11.792Z,101927.31
2023-04-29T05:43:38.327Z,101940.19
2023-04-29T05:46:04.991Z,101943.41
2023-04-29T05:48:31.587Z,101945.22
2023-04-29T05:50:58.181Z,101942.66
2023-04-29T05:53:24.673Z,101946.66
2023-04-29T05:55:51.568Z,101956.94
2023-04-29T05:58:18.298Z,101952.28
2023-04-29T06:00:44.892Z,101957.38
2023-04-29T06:03:12.717Z,101969.13
2023-04-29T06:05:39.934Z,101972.38
2023-04-29T06:08:07.166Z,101969.66
2023-04-29T06:10:34.102Z,101970.78
2023-04-29T06:13:00.725Z,101965.91
2023-04-29T06:15:27.315Z,101977.34
2023-04-29T06:17:53.869Z,101986.84
2023-04-29T06:20:20.611Z,101990.28
2023-04-29T06:22:47.532Z,101992.84
2023-04-29T06:25:14.312Z,101990.19
2023-04-29T06:27:40.944Z,101993.88
2023-04-29T06:30:08.017Z,101994.75
2023-04-29T06:32:34.569Z,102004.16
2023-04-29T06:35:01.357Z,102006.13
2023-04-29T06:37:28.823Z,102004.34
2023-04-29T06:39:55.624Z,102009.53
2023-04-29T06:42:22.384Z,102013.16
2023-04-29T06:44:48.935Z,102017.91
2023-04-29T06:47:15.540Z,102022.03
2023-04-29T06:49:43.800Z,102030.31
2023-04-29T06:52:10.292Z,102034.50
2023-04-29T06:54:36.871Z,102042.03
2023-04-29T06:57:03.452Z,102049.09
2023-04-29T06:59:30.072Z,102055.53
2023-04-29T07:01:57.000Z,102047.63
2023-04-29T07:04:23.637Z,102052.59
2023-04-29T07:06:51.168Z,102055.59
2023-04-29T07:09:17.771Z,102060.72
2023-04-29T07:11:44.269Z,102069.00
2023-04-29T07:14:10.781Z,102062.25
2023-04-29T07:16:37.735Z,102066.44
2023-04-29T07:19:04.269Z,102071.13
2023-04-29T07:21:31.351Z,102077.03
2023-04-29T07:24:00.832Z,102076.84
2023-04-29T07:26:27.364Z,102081.97
2023-04-29T07:28:54.591Z,102084.81
2023-04-29T07:31:21.718Z,102087.41
2023-04-29T07:33:48.797Z,102086.44
2023-04-29T07:36:15.431Z,102084.09
2023-04-29T07:38:41.919Z,102091.22
2023-04-29T07:41:08.390Z,102085.25
2023-04-29T07:43:34.959Z,102096.69
2023-04-29T07:46:01.728Z,102103.19
2023-04-29T07:48:28.378Z,102102.22
2023-04-29T07:50:54.972Z,102104.81
2023-04-29T07:53:21.826Z,102107.13
2023-04-29T07:55:48.368Z,102116.72
2023-04-29T07:58:14.826Z,102104.81
2023-04-29T08:00:41.501Z,102110.81
2023-04-29T08:03:08.205Z,102121.38
2023-04-29T08:05:35.183Z,102110.56
2023-04-29T08:08:01.850Z,102110.16
2023-04-29T08:10:28.436Z,102110.22
2023-04-29T08:12:54.958Z,102114.84
2023-04-29T08:15:21.601Z,102122.84
2023-04-29T08:17:48.081Z,102109.13
2023-04-29T08:20:15.369Z,102115.50
2023-04-29T08:22:42.684Z,102115.91
2023-04-29T08:25:09.725Z,102125.56
2023-04-29T08:27:36.401Z,102128.41
2023-04-29T08:30:03.071Z,102121.56
2023-04-29T08:32:29.674Z,102134.72
2023-04-29T08:34:56.558Z,102142.03
2023-04-29T08:37:23.239Z,102142.19
2023-04-29T08:39:49.733Z,102139.34
2023-04-29T08:42:22.164Z,102141.41
2023-04-29T08:44:49.418Z,102135.97
2023-04-29T08:47:16.584Z,102139.72
2023-04-29T08:49:43.218Z,102147.06
2023-04-29T08:52:09.798Z,102141.53
2023-04-29T08:54:36.428Z,102132.97
2023-04-29T08:57:04.906Z,102136.75
2023-04-29T08:59:32.349Z,102136.16
2023-04-29T09:01:59.238Z,102132.06
2023-04-29T09:04:39.345Z,102146.69
2023-04-29T09:07:06.999Z,102147.56
2023-04-29T09:09:34.209Z,102145.06
2023-04-29T09:12:44.007Z,102155.50
2023-04-29T09:15:11.337Z,102157.38
2023-04-29T09:17:46.512Z,102160.88
2023-04-29T09:20:26.589Z,102159.38
2023-04-29T09:22:58.606Z,102170.19
2023-04-29T09:25:27.718Z,102176.97
2023-04-29T09:27:55.691Z,102164.75
2023-04-29T09:30:23.169Z,102175.06
2023-04-29T09:33:09.723Z,102178.72
2023-04-29T09:35:36.739Z,102175.41
2023-04-29T09:38:14.045Z,102184.25
2023-04-29T09:40:58.410Z,102194.84
2023-04-29T09:43:27.009Z,102183.53
2023-04-29T09:45:53.827Z,102185.78
2023-04-29T09:48:20.384Z,102192.84
2023-04-29T09:51:04.171Z,102188.72
2023-04-29T09:53:31.675Z,102192.91
2023-04-29T09:56:00.884Z,102186.84
2023-04-29T09:58:38.150Z,102197.47
2023-04-29T10:01:05.386Z,102195.53
2023-04-29T10:03:37.037Z,102198.81
2023-04-29T10:06:08.066Z,102196.09
2023-04-29T10:08:35.500Z,102191.59
2023-04-29T10:11:04.081Z,102195.75
2023-04-29T10:13:31.430Z,102193.66
2023-04-29T10:16:11.216Z,102186.59
2023-04-29T10:18:41.701Z,102187.78
2023-04-29T10:21:12.216Z,102192.97
2023-04-29T10:23:39.627Z,102197.47
2023-04-29T10:26:08.865Z,102192.34
2023-04-29T10:28:37.980Z,102198.94
2023-04-29T10:31:12.089Z,102199.00
2023-04-29T10:33:42.166Z,102191.47
2023-04-29T10:36:10.309Z,102197.94
2023-04-29T10:38:44.738Z,102199.94
2023-04-29T10:41:24.763Z,102205.00
2023-04-29T10:43:55.504Z,102203.72
2023-04-29T10:46:24.063Z,102203.66
2023-04-29T10:48:55.421Z,102211.59
2023-04-29T10:51:34.355Z,102193.59
2023-04-29T10:54:13.588Z,102208.06
2023-04-29T10:56:42.383Z,102201.38
2023-04-29T10:59:17.412Z,102193.03
2023-04-29T11:01:54.184Z,102191.19
2023-04-29T11:04:22.591Z,102202.25
2023-04-29T11:06:54.248Z,102206.25
2023-04-29T11:09:23.936Z,102202.13
2023-04-29T11:12:00.453Z,102210.41
2023-04-29T11:14:33.246Z,102192.91
2023-04-29T11:17:04.976Z,102188.78
2023-04-29T11:19:34.013Z,102198.72
2023-04-29T11:22:11.953Z,102206.56
2023-04-29T11:24:50.769Z,102206.00
2023-04-29T11:27:19.508Z,102194.25
2023-04-29T11:29:47.718Z,102208.31
2023-04-29T11:32:14.881Z,102200.13
2023-04-29T11:34:41.939Z,102198.69
2023-04-29T11:37:08.443Z,102209.78
2023-04-29T11:39:36.207Z,102209.41
2023-04-29T11:42:06.956Z,102219.66
2023-04-29T11:44:37.579Z,102206.63
2023-04-29T11:47:07.955Z,102206.00
2023-04-29T11:49:35.290Z,102204.78
2023-04-29T11:52:02.206Z,102194.88
2023-04-29T11:54:30.096Z,102203.19
2023-04-29T11:56:58.549Z,102201.59
2023-04-29T11:59:25.115Z,102197.94
2023-04-29T12:01:51.688Z,102216.59
2023-04-29T12:04:19.582Z,102214.38
2023-04-29T12:06:46.659Z,102203.03
2023-04-29T12:09:15.385Z,102212.41
2023-04-29T12:11:42.398Z,102207.63
2023-04-29T12:14:08.999Z,102208.16
2023-04-29T12:16:35.763Z,102206.66
2023-04-29T12:19:02.975Z,102211.16
2023-04-29T12:21:29.561Z,102200.34
2023-04-29T12:24:00.527Z,102199.88
2023-04-29T12:26:31.487Z,102194.25
2023-04-29T12:28:59.377Z,102201.09
2023-04-29T12:31:34.454Z,102213.66
2023-04-29T12:34:03.840Z,102203.69
2023-04-29T12:36:30.386Z,102206.94
2023-04-29T12:38:58.931Z,102200.00
2023-04-29T12:41:38.222Z,102203.19
2023-04-29T12:44:06.149Z,102204.66
2023-04-29T12:46:41.381Z,102209.16
2023-04-29T12:49:08.350Z,102211.47
2023-04-29T12:51:35.475Z,102204.50
2023-04-29T12:54:03.818Z,102203.72
2023-04-29T12:56:33.943Z,102215.06
2023-04-29T12:59:10.173Z,102212.72
2023-04-29T13:01:37.386Z,102214.00
2023-04-29T13:04:06.256Z,102209.31
2023-04-29T13:06:33.304Z,102206.19
2023-04-29T13:09:00.181Z,102204.19
2023-04-29T13:11:32.222Z,102210.88
2023-04-29T13:14:00.568Z,102219.31
2023-04-29T13:16:27.217Z,102221.38
2023-04-29T13:19:12.331Z,102232.41
2023-04-29T13:21:40.631Z,102227.19
2023-04-29T13:24:07.661Z,102217.72
2023-04-29T13:26:34.108Z,102223.81
2023-04-29T13:29:00.748Z,102222.56
2023-04-29T13:31:28.019Z,102222.34
2023-04-29T13:33:55.388Z,102220.25
2023-04-29T13:36:21.910Z,102224.41
2023-04-29T13:38:54.137Z,102220.63
2023-04-29T13:41:22.739Z,102224.22
2023-04-29T13:43:57.962Z,102224.31
2023-04-29T13:46:25.333Z,102211.84
2023-04-29T14:02:08.127Z,102237.44
2023-04-29T14:04:06.856Z,102240.38
2023-04-29T14:06:34.123Z,102245.88
2023-04-29T14:09:03.552Z,102243.47
2023-04-29T14:11:30.652Z,102250.34
2023-04-29T14:13:57.129Z,102240.19
2023-04-29T14:16:23.739Z,102241.72
2023-04-29T14:18:50.264Z,102259.56
2023-04-29T14:21:17.078Z,102253.50
2023-04-29T14:23:43.616Z,102252.75
2023-04-29T14:28:39.488Z,102258.88
2023-04-29T14:31:06.355Z,102257.16
2023-04-29T14:33:32.797Z,102260.56
2023-04-29T14:36:00.923Z,102265.53
2023-04-29T14:38:27.412Z,102267.28
2023-04-29T14:40:53.841Z,102262.75
2023-04-29T14:43:20.423Z,102269.34
2023-04-29T14:45:47.376Z,102273.06
2023-04-29T14:48:14.006Z,102264.06
2023-04-29T14:50:40.784Z,102256.63
2023-04-29T14:53:08.779Z,102262.94
2023-04-29T14:55:35.276Z,102265.97
2023-04-29T14:58:05.001Z,102270.91
2023-04-29T15:00:31.931Z,102274.94
2023-04-29T15:02:59.186Z,102268.91
2023-04-29T15:05:25.811Z,102274.81
2023-04-29T15:07:52.389Z,102272.84
2023-04-29T15:10:19.362Z,102269.28
2023-04-29T15:12:45.955Z,102267.31
2023-04-29T15:15:12.884Z,102269.78
2023-04-29T15:17:39.780Z,102268.53
2023-04-29T15:20:07.629Z,102278.44
2023-04-29T15:22:34.209Z,102273.91
2023-04-29T15:25:01.220Z,102278.97
2023-04-29T15:27:28.362Z,102272.75
2023-04-29T15:29:57.196Z,102266.53
2023-04-29T15:32:24.870Z,102284.16
2023-04-29T15:34:51.435Z,102287.03
2023-04-29T15:37:17.972Z,102287.03
2023-04-29T15:39:44.518Z,102272.41
2023-04-29T15:42:11.257Z,102276.06
2023-04-29T15:44:37.763Z,102276.44
2023-04-29T15:47:04.291Z,102281.50
2023-04-29T15:49:32.393Z,102278.63
2023-04-29T15:52:02.314Z,102270.00
2023-04-29T15:54:29.061Z,102276.22
2023-04-29T15:56:55.814Z,102275.97
2023-04-29T15:59:22.568Z,102278.69
2023-04-29T16:01:49.713Z,102287.31
2023-04-29T16:04:17.653Z,102289.06
2023-04-29T16:06:44.356Z,102289.06
2023-04-29T16:09:12.059Z,102287.41
2023-04-29T16:11:38.609Z,102294.00
2023-04-29T16:14:05.405Z,102298.09
2023-04-29T16:16:32.393Z,102298.34
2023-04-29T16:19:04.350Z,102288.78
2023-04-29T16:21:31.325Z,102294.56
2023-04-29T16:23:57.955Z,102291.66
2023-04-29T16:26:31.866Z,102290.13
2023-04-29T16:28:58.421Z,102299.22
2023-04-29T16:31:32.617Z,102302.09
2023-04-29T16:33:59.256Z,102314.00
2023-04-29T16:36:26.297Z,102318.75
2023-04-29T16:38:55.822Z,102316.34
2023-04-29T16:41:26.183Z,102324.66
2023-04-29T16:43:53.978Z,102325.22
2023-04-29T16:46:20.618Z,102333.41
2023-04-29T16:48:47.520Z,102335.16
2023-04-29T16:51:14.094Z,102317.47
2023-04-29T16:53:40.723Z,102322.13
2023-04-29T16:56:07.345Z,102316.41
2023-04-29T16:58:33.978Z,102315.13
2023-04-29T17:01:00.639Z,102316.59
2023-04-29T17:03:27.158Z,102320.88
2023-04-29T17:05:53.854Z,102326.47
2023-04-29T17:08:20.447Z,102325.69
2023-04-29T17:10:46.985Z,102327.06
2023-04-29T17:13:13.501Z,102334.13
2023-04-29T17:15:40.409Z,102330.44
2023-04-29T17:18:07.261Z,102335.09
2023-04-29T17:20:35.113Z,102329.16
2023-04-29T17:23:01.993Z,102340.50
2023-04-29T17:25:28.922Z,102333.81
2023-04-29T17:27:55.660Z,102339.59
2023-04-29T17:30:22.208Z,102340.06
2023-04-29T17:32:50.008Z,102337.19
2023-04-29T17:35:16.854Z,102343.53
2023-04-29T17:37:43.420Z,102351.03
2023-04-29T17:40:10.962Z,102354.78
2023-04-29T17:42:37.503Z,102344.16
2023-04-29T17:45:04.310Z,102356.13
2023-04-29T17:47:30.863Z,102346.06
2023-04-29T17:50:00.334Z,102344.16
2023-04-29T17:52:28.720Z,102343.88
2023-04-29T17:54:55.242Z,102350.13
2023-04-29T17:57:21.762Z,102350.44
2023-04-29T17:59:48.494Z,102346.44
2023-04-29T18:02:15.006Z,102351.44
2023-04-29T18:04:41.715Z,102348.31
2023-04-29T18:07:08.425Z,102351.84
2023-04-29T18:09:34.932Z,102362.03
2023-04-29T18:12:02.376Z,102375.00
2023-04-29T18:14:30.612Z,102367.78
2023-04-29T18:16:59.899Z,102362.22
2023-04-29T18:19:27.462Z,102371.63
2023-04-29T18:21:58.068Z,102367.88
2023-04-29T18:24:31.119Z,102368.72
2023-04-29T18:26:57.956Z,102375.44
2023-04-29T18:29:24.948Z,102378.56
2023-04-29T18:31:54.784Z,102376.44
2023-04-29T18:34:21.639Z,102374.50
2023-04-29T18:36:48.294Z,102378.56
2023-04-29T18:39:15.142Z,102379.84
2023-04-29T18:41:41.790Z,102384.00
2023-04-29T18:44:08.450Z,102383.72
2023-04-29T18:46:35.150Z,102375.47
2023-04-29T18:49:01.840Z,102377.63
2023-04-29T18:51:28.301Z,102377.06
2023-04-29T18:53:54.798Z,102389.00
2023-04-29T18:56:21.447Z,102388.81
2023-04-29T18:58:48.045Z,102397.19
2023-04-29T19:01:14.932Z,102388.94
2023-04-29T19:03:41.915Z,102396.91
2023-04-29T19:06:08.465Z,102397.53
2023-04-29T19:08:35.012Z,102398.81
2023-04-29T19:11:01.913Z,102407.16
2023-04-29T19:13:29.392Z,102400.34
2023-04-29T19:15:55.922Z,102409.72
2023-04-29T19:18:23.170Z,102416.25
2023-04-29T19:20:50.233Z,102413.00
2023-04-29T19:23:16.940Z,102400.31
2023-04-29T19:25:44.021Z,102413.66
2023-04-29T19:28:10.498Z,102416.69
2023-04-29T19:30:37.359Z,102426.53
2023-04-29T19:33:04.240Z,102427.84
2023-04-29T19:35:30.930Z,102435.16
2023-04-29T19:37:57.375Z,102421.47
2023-04-29T19:40:23.855Z,102421.63
2023-04-29T19:42:50.568Z,102427.84
2023-04-29T19:45:17.157Z,102434.31
2023-04-29T19:47:43.981Z,102423.41
2023-04-29T19:50:10.807Z,102433.22
2023-04-29T19:52:37.328Z,102448.44
2023-04-29T19:55:04.870Z,102441.78
2023-04-29T19:57:32.108Z,102438.19
2023-04-29T19:59:58.678Z,102449.75
2023-04-29T20:02:25.274Z,102440.06
2023-04-29T20:04:51.958Z,102454.38
2023-04-29T20:07:18.645Z,102448.28
2023-04-29T20:09:45.903Z,102453.75
2023-04-29T20:12:12.490Z,102449.69
2023-04-29T20:14:39.159Z,102455.06
2023-04-29T20:17:06.194Z,102460.50
2023-04-29T20:19:32.836Z,102459.19
2023-04-29T20:21:59.512Z,102451.50
2023-04-29T20:24:26.764Z,102459.53
2023-04-29T20:26:53.233Z,102462.31
2023-04-29T20:29:19.781Z,102463.31
2023-04-29T20:31:46.404Z,102456.44
2023-04-29T20:34:13.265Z,102460.06
2023-04-29T20:36:39.818Z,102454.84
2023-04-29T20:39:06.953Z,102459.28
2023-04-29T20:41:33.614Z,102462.13
2023-04-29T20:44:00.293Z,102457.94
2023-04-29T20:46:26.856Z,102470.47
2023-04-29T20:48:53.652Z,102460.13
2023-04-29T20:51:20.327Z,102468.22
2023-04-29T20:53:47.322Z,102472.75
2023-04-29T20:56:13.965Z,102479.72
2023-04-29T20:58:40.537Z,102480.00
2023-04-29T21:01:07.186Z,102479.31
2023-04-29T21:03:33.978Z,102483.00
2023-04-29T21:06:00.686Z,102477.81
2023-04-29T21:08:27.307Z,102479.56
2023-04-29T21:10:53.785Z,102479.59
2023-04-29T21:13:20.376Z,102483.19
2023-04-29T21:15:47.087Z,102481.63
2023-04-29T21:18:14.033Z,102475.72
2023-04-29T21:20:40.669Z,102482.88
2023-04-29T21:23:07.174Z,102489.16
2023-04-29T21:25:34.068Z,102491.25
2023-04-29T21:28:00.782Z,102485.44
2023-04-29T21:30:27.342Z,102495.19
2023-04-29T21:32:54.135Z,102498.69
2023-04-29T21:35:20.856Z,102486.81
2023-04-29T21:37:47.564Z,102494.78
2023-04-29T21:40:14.535Z,102494.03
2023-04-29T21:42:43.153Z,102503.09
2023-04-29T21:45:10.393Z,102503.47
2023-04-29T21:47:36.977Z,102507.88
2023-04-29T21:50:03.640Z,102500.38
2023-04-29T21:52:34.968Z,102510.88
2023-04-29T21:55:05.111Z,102518.94
2023-04-29T21:57:42.554Z,102506.75
2023-04-29T22:00:20.669Z,102513.84
2023-04-29T22:02:47.382Z,102512.28
2023-04-29T22:05:14.128Z,102509.72
2023-04-29T22:07:40.856Z,102510.59
2023-04-29T22:10:07.783Z,102516.88
2023-04-29T22:12:34.290Z,102521.25
2023-04-29T22:15:00.764Z,102516.94
2023-04-29T22:17:27.310Z,102521.41
2023-04-29T22:19:54.347Z,102518.88
2023-04-29T22:22:20.988Z,102517.06
2023-04-29T22:24:47.443Z,102515.25
2023-04-29T22:27:14.044Z,102520.69
2023-04-29T22:29:40.529Z,102515.53
2023-04-29T22:32:07.321Z,102528.06
2023-04-29T22:34:33.808Z,102515.09
2023-04-29T22:37:00.491Z,102518.56
2023-04-29T22:39:30.480Z,102524.06
2023-04-29T22:41:57.053Z,102515.50
2023-04-29T22:44:23.671Z,102532.16
2023-04-29T22:46:50.228Z,102535.84
2023-04-29T22:49:16.687Z,102537.78
2023-04-29T22:51:43.261Z,102522.13
2023-04-29T22:54:09.719Z,102536.22
2023-04-29T22:56:36.415Z,102528.63
2023-04-29T22:59:02.884Z,102518.28
2023-04-29T23:01:29.543Z,102525.44
2023-04-29T23:03:56.332Z,102526.41
2023-04-29T23:06:23.074Z,102532.63
2023-04-29T23:08:49.608Z,102528.34
2023-04-29T23:11:16.163Z,102526.75
2023-04-29T23:13:42.666Z,102526.09
2023-04-29T23:16:10.855Z,102514.81
2023-04-29T23:18:37.696Z,102534.72
2023-04-29T23:21:04.386Z,102526.09
2023-04-29T23:23:30.897Z,102537.56
2023-04-29T23:25:57.423Z,102532.44
2023-04-29T23:28:24.795Z,102529.13
2023-04-29T23:30:51.388Z,102541.50
2023-04-29T23:33:17.913Z,102534.59
2023-04-29T23:35:49.726Z,102542.53
2023-04-29T23:38:16.809Z,102545.34
2023-04-29T23:40:43.448Z,102544.69
2023-04-29T23:43:10.027Z,102554.38
2023-04-29T23:45:36.986Z,102548.28
2023-04-29T23:48:03.727Z,102549.19
2023-04-29T23:50:30.248Z,102552.75
2023-04-29T23:52:56.761Z,102554.41
2023-04-29T23:55:25.391Z,102551.81
2023-04-29T23:57:51.884Z,102555.47
